Bayside Blaster — WCT4610 — position and weather

sailwx.info

Track history (hours):
 
Tides and Currents Weather Stations Pressure Air Temp Water Temp Dewpoint Dewpoint Depression Visibility Wind Speed Wind Dir Waves Ship Positions

Bayside Blaster

Owner: SOFGE, CHARLES E, MIAMI, FL. More information available from US FCC via Universal Licensing System.

Last reported at 2018-Jun-19 23:32 UTC. Time now 2018-Jun-21 18:11 UTC.
Position N 25°47' W 080°11'.

Type: Passenger vessel. MMSI: 367037810.

Date/timePositionNaut miles runAvg speedWind from/ knotsBaromVisibWave heightAir tempDewpointWater temp
2018-Jun-19 23:32N 25°47' W 080°11'0 0.2
2018-Jun-19 23:27N 25°47' W 080°11'2 5.1
2018-Jun-19 23:00N 25°46' W 080°09'1 2.5
2018-Jun-19 22:29N 25°47' W 080°10'1 3.1
2018-Jun-19 22:00N 25°47' W 080°11'0 0.0
2018-Jun-19 21:27N 25°47' W 080°11'2 5.2
2018-Jun-19 21:00N 25°46' W 080°09'1 2.3
2018-Jun-19 20:30N 25°47' W 080°09'2 2.9
2018-Jun-19 19:57N 25°47' W 080°11'0 0.0
2018-Jun-19 19:30N 25°47' W 080°11'2 4.5
2018-Jun-19 19:00N 25°46' W 080°09'1 1.9
2018-Jun-19 18:30N 25°47' W 080°09'2 2.7
2018-Jun-19 17:53N 25°47' W 080°11'0 0.0
2018-Jun-19 17:29N 25°47' W 080°11'2 4.5
2018-Jun-19 16:59N 25°46' W 080°09'1 1.7
2018-Jun-19 16:30N 25°47' W 080°09'2 3.4
2018-Jun-19 15:59N 25°47' W 080°11'0 0.0
2018-Jun-19 12:21N 25°47' W 080°11'0 0.4
2018-Jun-19 12:00N 25°47' W 080°11'0 0.0
2018-Jun-17 23:12N 25°47' W 080°11'0 0.1
2018-Jun-17 23:00N 25°47' W 080°11'2 3.0
2018-Jun-17 22:30N 25°47' W 080°09'1 2.4
2018-Jun-17 22:00N 25°46' W 080°08'2 4.8
2018-Jun-17 21:29N 25°47' W 080°11'0 0.0
2018-Jun-17 20:59N 25°47' W 080°11'2 3.4
2018-Jun-17 20:29N 25°47' W 080°09'1 2.1
2018-Jun-17 20:00N 25°46' W 080°09'2 4.6
2018-Jun-17 19:28N 25°47' W 080°11'0 0.0
2018-Jun-17 18:56N 25°47' W 080°11'2 3.8
2018-Jun-17 18:30N 25°47' W 080°09'1 2.0
2018-Jun-17 18:00N 25°46' W 080°09'2 4.4
2018-Jun-17 17:30N 25°47' W 080°11'0 0.0
2018-Jun-17 16:59N 25°47' W 080°11'2 3.7
2018-Jun-17 16:30N 25°46' W 080°09'1 1.6
2018-Jun-17 16:00N 25°47' W 080°09'2 2.7
2018-Jun-17 15:25N 25°47' W 080°11'0 0.0
2018-Jun-17 14:58N 25°47' W 080°11'0 0.0
2018-Jun-16 23:25N 25°47' W 080°11'0 0.0
2018-Jun-16 22:59N 25°47' W 080°11'2 4.9
2018-Jun-16 22:29N 25°46' W 080°09'1 2.2
2018-Jun-16 22:00N 25°47' W 080°09'2 3.2
2018-Jun-16 21:29N 25°47' W 080°11'0 0.0
2018-Jun-16 20:59N 25°47' W 080°11'1 2.8
2018-Jun-16 20:29N 25°47' W 080°10'1 2.3
2018-Jun-16 20:00N 25°46' W 080°09'2 4.1
2018-Jun-16 19:29N 25°47' W 080°11'0 0.0
2018-Jun-16 19:01N 25°47' W 080°11'1 2.7
2018-Jun-16 18:30N 25°47' W 080°10'1 2.1
2018-Jun-16 17:59N 25°46' W 080°09'2 3.6
2018-Jun-16 17:25N 25°47' W 080°11'0 0.0
2018-Jun-16 17:00N 25°47' W 080°11'2 4.8
2018-Jun-16 16:30N 25°46' W 080°09'1 2.2
2018-Jun-16 16:00N 25°47' W 080°09'2 2.8
2018-Jun-16 15:29N 25°47' W 080°11'0 0.0
2018-Jun-16 14:52N 25°47' W 080°11'0 0.0
2018-Jun-15 23:05N 25°47' W 080°11'0 0.1
2018-Jun-15 23:00N 25°47' W 080°11'2 3.4
2018-Jun-15 22:30N 25°47' W 080°09'1 2.4
2018-Jun-15 22:00N 25°46' W 080°09'2 4.6
2018-Jun-15 21:28N 25°47' W 080°11'0 0.0
2018-Jun-15 20:58N 25°47' W 080°11'2 4.6
2018-Jun-15 20:30N 25°46' W 080°09'1 2.0
2018-Jun-15 20:00N 25°47' W 080°09'2 2.8
2018-Jun-15 19:27N 25°47' W 080°11'0 0.0
2018-Jun-15 18:58N 25°47' W 080°11'2 5.1
2018-Jun-15 18:29N 25°46' W 080°09'1 2.9
2018-Jun-15 17:59N 25°47' W 080°10'2 2.2
2018-Jun-15 17:17N 25°47' W 080°11'0 0.0
2018-Jun-15 16:59N 25°47' W 080°11'2 4.2
2018-Jun-15 16:30N 25°46' W 080°09'1 2.0
2018-Jun-15 16:00N 25°47' W 080°09'2 2.7
2018-Jun-15 15:26N 25°47' W 080°11'0 0.0
2018-Jun-15 15:00N 25°47' W 080°11'  
2018-Jun-10 15:19N 25°47' W 080°11'0 0.0
2018-Jun-10 14:58N 25°47' W 080°11'  
Track history (hours):
 
Tides and Currents Weather Stations Pressure Air Temp Water Temp Dewpoint Dewpoint Depression Visibility Wind Speed Wind Dir Waves Ship Positions

Bayside Blaster

Owner: SOFGE, CHARLES E, MIAMI, FL. More information available from US FCC via Universal Licensing System.

Last reported at 2018-Jun-19 23:32 UTC. Time now 2018-Jun-21 18:11 UTC.
Position N 25°47' W 080°11'.

Type: Passenger vessel. MMSI: 367037810.

Date/timePositionNaut miles runAvg speedWind from/ knotsBaromVisibWave heightAir tempDewpointWater temp
2018-Jun-19 23:32N 25°47' W 080°11'0 0.2
2018-Jun-19 23:27N 25°47' W 080°11'2 5.1
2018-Jun-19 23:00N 25°46' W 080°09'1 2.5
2018-Jun-19 22:29N 25°47' W 080°10'1 3.1
2018-Jun-19 22:00N 25°47' W 080°11'0 0.0
2018-Jun-19 21:27N 25°47' W 080°11'2 5.2
2018-Jun-19 21:00N 25°46' W 080°09'1 2.3
2018-Jun-19 20:30N 25°47' W 080°09'2 2.9
2018-Jun-19 19:57N 25°47' W 080°11'0 0.0
2018-Jun-19 19:30N 25°47' W 080°11'2 4.5
2018-Jun-19 19:00N 25°46' W 080°09'1 1.9
2018-Jun-19 18:30N 25°47' W 080°09'2 2.7
2018-Jun-19 17:53N 25°47' W 080°11'0 0.0
2018-Jun-19 17:29N 25°47' W 080°11'2 4.5
2018-Jun-19 16:59N 25°46' W 080°09'1 1.7
2018-Jun-19 16:30N 25°47' W 080°09'2 3.4
2018-Jun-19 15:59N 25°47' W 080°11'0 0.0
2018-Jun-19 12:21N 25°47' W 080°11'0 0.4
2018-Jun-19 12:00N 25°47' W 080°11'0 0.0
2018-Jun-17 23:12N 25°47' W 080°11'0 0.1
2018-Jun-17 23:00N 25°47' W 080°11'2 3.0
2018-Jun-17 22:30N 25°47' W 080°09'1 2.4
2018-Jun-17 22:00N 25°46' W 080°08'2 4.8
2018-Jun-17 21:29N 25°47' W 080°11'0 0.0
2018-Jun-17 20:59N 25°47' W 080°11'2 3.4
2018-Jun-17 20:29N 25°47' W 080°09'1 2.1
2018-Jun-17 20:00N 25°46' W 080°09'2 4.6
2018-Jun-17 19:28N 25°47' W 080°11'0 0.0
2018-Jun-17 18:56N 25°47' W 080°11'2 3.8
2018-Jun-17 18:30N 25°47' W 080°09'1 2.0
2018-Jun-17 18:00N 25°46' W 080°09'2 4.4
2018-Jun-17 17:30N 25°47' W 080°11'0 0.0
2018-Jun-17 16:59N 25°47' W 080°11'2 3.7
2018-Jun-17 16:30N 25°46' W 080°09'1 1.6
2018-Jun-17 16:00N 25°47' W 080°09'2 2.7
2018-Jun-17 15:25N 25°47' W 080°11'0 0.0
2018-Jun-17 14:58N 25°47' W 080°11'0 0.0
2018-Jun-16 23:25N 25°47' W 080°11'0 0.0
2018-Jun-16 22:59N 25°47' W 080°11'2 4.9
2018-Jun-16 22:29N 25°46' W 080°09'1 2.2
2018-Jun-16 22:00N 25°47' W 080°09'2 3.2
2018-Jun-16 21:29N 25°47' W 080°11'0 0.0
2018-Jun-16 20:59N 25°47' W 080°11'1 2.8
2018-Jun-16 20:29N 25°47' W 080°10'1 2.3
2018-Jun-16 20:00N 25°46' W 080°09'2 4.1
2018-Jun-16 19:29N 25°47' W 080°11'0 0.0
2018-Jun-16 19:01N 25°47' W 080°11'1 2.7
2018-Jun-16 18:30N 25°47' W 080°10'1 2.1
2018-Jun-16 17:59N 25°46' W 080°09'2 3.6
2018-Jun-16 17:25N 25°47' W 080°11'0 0.0
2018-Jun-16 17:00N 25°47' W 080°11'2 4.8
2018-Jun-16 16:30N 25°46' W 080°09'1 2.2
2018-Jun-16 16:00N 25°47' W 080°09'2 2.8
2018-Jun-16 15:29N 25°47' W 080°11'0 0.0
2018-Jun-16 14:52N 25°47' W 080°11'0 0.0
2018-Jun-15 23:05N 25°47' W 080°11'0 0.1
2018-Jun-15 23:00N 25°47' W 080°11'2 3.4
2018-Jun-15 22:30N 25°47' W 080°09'1 2.4
2018-Jun-15 22:00N 25°46' W 080°09'2 4.6
2018-Jun-15 21:28N 25°47' W 080°11'0 0.0
2018-Jun-15 20:58N 25°47' W 080°11'2 4.6
2018-Jun-15 20:30N 25°46' W 080°09'1 2.0
2018-Jun-15 20:00N 25°47' W 080°09'2 2.8
2018-Jun-15 19:27N 25°47' W 080°11'0 0.0
2018-Jun-15 18:58N 25°47' W 080°11'2 5.1
2018-Jun-15 18:29N 25°46' W 080°09'1 2.9
2018-Jun-15 17:59N 25°47' W 080°10'2 2.2
2018-Jun-15 17:17N 25°47' W 080°11'0 0.0
2018-Jun-15 16:59N 25°47' W 080°11'2 4.2
2018-Jun-15 16:30N 25°46' W 080°09'1 2.0
2018-Jun-15 16:00N 25°47' W 080°09'2 2.7
2018-Jun-15 15:26N 25°47' W 080°11'0 0.0
2018-Jun-15 15:00N 25°47' W 080°11'  
2018-Jun-10 15:19N 25°47' W 080°11'0 0.0
2018-Jun-10 14:58N 25°47' W 080°11'  

Dump ship's entire track history